Terminal Aerodrome Forecast
Issued by NWS

Home | Current Version | Previous Version | Graphics & Text | Print | Product List | Glossary On
Versions: 1 2 3 4 5 6 7 8 9 10 11 12 13 14 15 16 17
000
FTUS43 KICT 231137
TAFCNU
TAF
KCNU 231137Z 2312/2412 09008KT P6SM SCT050
     FM231500 09013KT P6SM OVC050
     FM231800 10015G22KT P6SM OVC050
     FM240700 13014KT P6SM VCTS OVC020CB=

USA.gov is the U.S. government's official web portal to all federal, state and local government web resources and services.